Time;durP1;ratioP1;P1;durP2;ratioP2;P2;SDS_P1;SDS_P2;PMS_P1;PMS_P2;Temp;Humidity;BMP_temperature;BMP_pressure;BME280_temperature;BME280_humidity;BME280_pressure;Samples;Min_cycle;Max_cycle;Signal;HPM_P1;HPM_P2
2021/08/01 00:01:37;;;;;;;1.50;0.97;;;;;;;17.91;81.27;100291.19;5094279;28;20444;-66
2021/08/01 00:04:03;;;;;;;1.57;1.10;;;;;;;17.92;81.10;100281.78;5094058;28;20476;-65
2021/08/01 00:06:30;;;;;;;3.00;1.00;;;;;;;17.83;82.67;100279.25;5094193;28;20482;-66
2021/08/01 00:08:56;;;;;;;1.27;0.80;;;;;;;17.85;82.10;100279.69;5094025;28;20444;-66
2021/08/01 00:11:23;;;;;;;1.23;0.80;;;;;;;17.86;81.82;100289.50;5093990;28;20429;-66
2021/08/01 00:13:49;;;;;;;1.03;0.97;;;;;;;17.84;82.64;100289.09;5093708;28;20445;-66
2021/08/01 00:16:15;;;;;;;5.73;1.10;;;;;;;17.74;81.79;100280.59;5093592;28;20472;-66
2021/08/01 00:18:43;;;;;;;1.47;1.17;;;;;;;17.68;81.29;100277.31;5093716;28;20937;-66
2021/08/01 00:21:10;;;;;;;1.80;0.80;;;;;;;17.67;82.15;100283.16;5093704;28;20452;-66
2021/08/01 00:23:36;;;;;;;1.43;1.13;;;;;;;17.64;82.50;100282.72;5093847;28;20483;-67
2021/08/01 00:26:03;;;;;;;1.10;0.77;;;;;;;17.64;81.78;100276.44;5093850;28;20467;-67
2021/08/01 00:28:29;;;;;;;1.07;0.90;;;;;;;17.57;81.68;100277.06;5093955;28;20452;-66
2021/08/01 00:30:58;;;;;;;1.43;1.00;;;;;;;17.52;82.25;100274.59;5093756;28;20470;-67
2021/08/01 00:33:24;;;;;;;1.73;1.00;;;;;;;17.54;81.72;100277.00;5093740;28;20441;-66
2021/08/01 00:35:52;;;;;;;1.70;1.50;;;;;;;17.49;82.33;100264.38;5093742;28;20467;-66
2021/08/01 00:38:18;;;;;;;2.83;0.93;;;;;;;17.49;82.96;100272.59;5093672;28;20447;-66
2021/08/01 00:40:45;;;;;;;1.00;0.90;;;;;;;17.53;83.63;100278.13;5093327;28;20869;-66
2021/08/01 00:43:11;;;;;;;1.53;1.00;;;;;;;17.56;83.09;100277.44;5093588;28;20729;-66
2021/08/01 00:45:39;;;;;;;1.27;1.07;;;;;;;17.54;83.38;100271.53;5093589;28;20460;-66
2021/08/01 00:48:09;;;;;;;1.47;1.13;;;;;;;17.50;84.62;100282.38;5093601;28;20432;-66
2021/08/01 00:50:35;;;;;;;4.13;1.40;;;;;;;17.53;83.96;100268.00;5093547;28;20447;-65
2021/08/01 00:53:03;;;;;;;1.83;1.30;;;;;;;17.53;84.49;100269.91;5093453;28;20456;-66
2021/08/01 00:55:30;;;;;;;0.87;0.80;;;;;;;17.47;84.65;100268.59;5093385;28;20463;-66
2021/08/01 00:57:56;;;;;;;0.83;0.77;;;;;;;17.44;84.95;100281.06;5093472;28;20496;-66
2021/08/01 01:00:38;;;;;;;1.53;0.73;;;;;;;17.43;84.68;100284.94;5093405;28;20440;-66
2021/08/01 01:03:12;;;;;;;0.70;0.70;;;;;;;17.35;82.19;100277.69;5093457;28;20437;-66
2021/08/01 01:05:45;;;;;;;1.47;1.17;;;;;;;17.21;82.10;100286.34;5099364;28;20538;-66
2021/08/01 01:08:21;;;;;;;2.47;1.40;;;;;;;17.22;83.20;100281.69;5100164;28;20409;-66
2021/08/01 01:10:53;;;;;;;1.00;0.83;;;;;;;17.14;81.50;100272.50;5100136;28;20428;-67
2021/08/01 01:13:25;;;;;;;1.30;0.90;;;;;;;17.05;82.88;100272.69;5100134;28;20522;-66
2021/08/01 01:15:54;;;;;;;1.40;1.30;;;;;;;17.01;85.07;100262.78;5099641;28;20657;-66
2021/08/01 01:18:23;;;;;;;1.13;0.80;;;;;;;17.00;85.30;100266.66;5100027;28;20444;-66
2021/08/01 01:21:25;;;;;;;1.27;0.80;;;;;;;16.98;86.00;100268.97;5099991;28;20443;-66
2021/08/01 01:23:57;;;;;;;1.47;0.83;;;;;;;16.95;87.42;100280.59;5046160;28;20475;-66
2021/08/01 01:26:30;;;;;;;3.53;1.10;;;;;;;16.95;86.96;100272.41;5100011;28;20428;-66
2021/08/01 01:29:09;;;;;;;1.93;1.33;;;;;;;16.93;87.04;100274.69;5099680;28;20432;-67
2021/08/01 01:31:42;;;;;;;1.30;0.97;;;;;;;16.93;86.18;100274.69;5100042;28;20447;-65
2021/08/01 01:34:16;;;;;;;1.60;0.77;;;;;;;16.86;85.77;100292.50;5099792;28;20420;-66
2021/08/01 01:36:46;;;;;;;1.17;1.07;;;;;;;16.86;87.02;100289.75;5100001;28;20436;-66
2021/08/01 01:39:14;;;;;;;2.50;1.13;;;;;;;16.86;87.42;100287.03;5099839;28;20413;-66
2021/08/01 01:41:45;;;;;;;5.90;1.07;;;;;;;16.84;87.60;100283.88;5099898;28;20444;-64
2021/08/01 01:44:12;;;;;;;1.50;1.10;;;;;;;16.86;87.15;100278.03;5099712;28;20464;-66
2021/08/01 01:46:39;;;;;;;1.47;1.00;;;;;;;16.83;87.33;100281.50;5099827;28;20448;-66
2021/08/01 01:49:06;;;;;;;1.67;1.30;;;;;;;16.81;87.46;100279.09;5099837;28;20444;-66
2021/08/01 01:51:33;;;;;;;1.37;1.10;;;;;;;16.74;87.62;100283.59;5099650;28;20451;-64
2021/08/01 01:54:01;;;;;;;1.03;0.90;;;;;;;16.74;87.98;100289.06;5099600;28;20471;-66
2021/08/01 01:56:29;;;;;;;1.00;0.83;;;;;;;16.79;87.68;100283.34;5099699;28;20455;-66
2021/08/01 01:58:57;;;;;;;1.37;0.87;;;;;;;16.73;88.11;100284.72;5099670;28;20444;-67
2021/08/01 02:01:23;;;;;;;1.37;1.07;;;;;;;16.70;88.18;100275.25;5099573;28;20860;-66
2021/08/01 02:03:50;;;;;;;4.77;1.10;;;;;;;16.70;87.42;100277.19;5099515;28;20484;-67
2021/08/01 02:06:17;;;;;;;1.10;0.90;;;;;;;16.73;88.22;100277.28;5099549;28;20845;-66
2021/08/01 02:08:50;;;;;;;1.33;1.10;;;;;;;16.68;86.45;100274.00;5099505;28;20448;-66
2021/08/01 02:11:21;;;;;;;1.57;1.20;;;;;;;16.64;85.39;100269.25;5099585;28;20428;-66
2021/08/01 02:13:52;;;;;;;1.83;1.30;;;;;;;16.55;84.10;100265.84;5099393;28;20424;-67
2021/08/01 02:16:21;;;;;;;1.30;0.83;;;;;;;16.42;84.83;100255.31;5114928;22;21013;-69
2021/08/01 02:18:52;;;;;;;3.00;1.10;;;;;;;16.39;86.83;100268.56;5075903;28;20469;-69
2021/08/01 02:21:19;;;;;;;1.63;0.77;;;;;;;16.42;87.64;100269.78;5075943;28;20430;-69
2021/08/01 02:23:47;;;;;;;1.57;1.27;;;;;;;16.45;88.04;100271.03;5075911;28;20568;-69
2021/08/01 02:26:17;;;;;;;1.13;1.00;;;;;;;16.47;88.94;100276.94;5075466;28;20990;-68
2021/08/01 02:28:45;;;;;;;4.73;1.00;;;;;;;16.50;88.96;100268.84;5076151;28;20437;-68
2021/08/01 02:31:13;;;;;;;1.20;0.93;;;;;;;16.50;88.46;100265.31;5075744;28;20441;-69
2021/08/01 02:33:40;;;;;;;1.77;1.00;;;;;;;16.45;89.16;100271.03;5075837;28;20488;-69
2021/08/01 02:36:09;;;;;;;1.10;1.00;;;;;;;16.46;90.20;100270.69;5075241;28;20997;-68
2021/08/01 02:38:36;;;;;;;1.50;1.40;;;;;;;16.48;90.02;100264.88;5075677;28;20437;-68
2021/08/01 02:41:06;;;;;;;1.47;1.07;;;;;;;16.46;89.58;100270.69;5075233;28;20934;-68
2021/08/01 02:43:34;;;;;;;1.00;0.83;;;;;;;16.40;90.41;100274.81;5075510;28;20477;-68
2021/08/01 02:46:04;;;;;;;1.00;0.90;;;;;;;16.42;90.64;100275.25;5075429;28;20461;-68
2021/08/01 02:48:34;;;;;;;2.20;1.30;;;;;;;16.39;90.60;100278.69;5075710;28;20441;-68
2021/08/01 02:51:03;;;;;;;2.03;1.30;;;;;;;16.40;90.17;100270.13;5075458;28;20437;-68
2021/08/01 02:53:33;;;;;;;0.97;0.70;;;;;;;16.45;89.89;100265.56;5075136;28;20930;-68
2021/08/01 02:56:03;;;;;;;2.47;1.20;;;;;;;16.42;90.10;100267.03;5075206;28;20468;-68
2021/08/01 02:58:31;;;;;;;3.03;0.80;;;;;;;16.38;89.89;100272.44;5075308;28;20433;-67
2021/08/01 03:00:58;;;;;;;2.03;1.00;;;;;;;16.29;90.74;100270.97;5074877;28;20997;-68
2021/08/01 03:03:27;;;;;;;1.10;1.00;;;;;;;16.26;91.05;100269.75;5075282;28;20448;-69
2021/08/01 03:05:54;;;;;;;1.33;0.97;;;;;;;16.26;91.15;100274.41;5075009;28;20484;-69
2021/08/01 03:08:21;;;;;;;1.40;1.20;;;;;;;16.27;91.09;100274.06;5074789;28;20448;-68
2021/08/01 03:10:49;;;;;;;1.70;1.10;;;;;;;16.27;91.23;100289.66;5075032;28;20462;-69
2021/08/01 03:13:16;;;;;;;7.77;1.30;;;;;;;16.24;91.60;100282.16;5074989;28;20850;-68
2021/08/01 03:15:43;;;;;;;3.10;1.23;;;;;;;16.25;91.74;100284.56;5074723;28;20460;-68
2021/08/01 03:18:09;;;;;;;0.80;0.60;;;;;;;16.24;91.52;100284.88;5074927;28;20453;-68
2021/08/01 03:20:37;;;;;;;1.40;1.17;;;;;;;16.21;91.16;100283.66;5074804;28;20816;-68
2021/08/01 03:23:04;;;;;;;1.53;1.43;;;;;;;16.18;89.70;100292.53;5074702;28;20822;-69
2021/08/01 03:25:30;;;;;;;1.23;1.13;;;;;;;16.15;90.64;100294.00;5074625;28;20481;-71
2021/08/01 03:27:57;;;;;;;1.10;0.90;;;;;;;16.10;90.95;100285.25;5073180;28;20810;-71
2021/08/01 03:30:23;;;;;;;1.20;1.10;;;;;;;16.05;91.39;100280.84;5074332;28;20946;-72
2021/08/01 03:32:49;;;;;;;3.03;1.40;;;;;;;16.00;92.13;100272.88;5074614;28;20448;-75
2021/08/01 03:35:16;;;;;;;2.20;1.23;;;;;;;15.99;92.37;100267.78;5074470;28;20440;-70
2021/08/01 03:37:44;;;;;;;1.40;1.30;;;;;;;16.00;92.30;100278.34;5074134;28;20460;-70
2021/08/01 03:40:11;;;;;;;1.00;0.90;;;;;;;16.03;92.86;100282.34;5074432;28;20445;-69
2021/08/01 03:42:38;;;;;;;2.10;1.43;;;;;;;16.04;92.50;100278.47;5074384;28;20445;-69
2021/08/01 03:45:05;;;;;;;1.33;1.00;;;;;;;16.05;92.39;100280.84;5074190;28;20492;-69
2021/08/01 03:47:31;;;;;;;2.50;1.63;;;;;;;16.04;92.44;100289.38;5074169;28;20453;-69
2021/08/01 03:49:58;;;;;;;1.07;0.97;;;;;;;15.99;92.74;100287.69;5074216;28;20440;-69
2021/08/01 03:52:24;;;;;;;1.10;0.97;;;;;;;16.01;92.89;100287.34;5074185;28;20437;-70
2021/08/01 03:54:52;;;;;;;1.93;1.43;;;;;;;16.02;92.77;100297.13;5073789;28;20931;-70
2021/08/01 03:57:19;;;;;;;2.83;1.30;;;;;;;16.03;92.97;100296.00;5073773;28;21021;-70
2021/08/01 03:59:45;;;;;;;1.73;1.10;;;;;;;16.01;91.74;100285.41;5074111;28;20445;-69
2021/08/01 04:02:12;;;;;;;2.03;1.80;;;;;;;16.05;91.46;100291.75;5073878;28;20449;-69
2021/08/01 04:04:39;;;;;;;1.87;1.67;;;;;;;16.03;90.64;100291.34;5073924;28;20484;-68
2021/08/01 04:07:05;;;;;;;5.10;1.33;;;;;;;16.02;89.12;100300.66;5073796;28;20465;-69
2021/08/01 04:09:32;;;;;;;1.90;1.53;;;;;;;16.01;89.02;100290.06;5073846;28;20444;-70
2021/08/01 04:12:00;;;;;;;9.67;1.43;;;;;;;16.05;90.79;100296.44;5073876;28;20457;-69
2021/08/01 04:14:26;;;;;;;2.10;1.50;;;;;;;16.11;92.07;100295.03;5073720;28;20845;-70
2021/08/01 04:16:53;;;;;;;1.93;1.40;;;;;;;16.16;93.53;100294.84;5073396;28;20469;-70
2021/08/01 04:19:19;;;;;;;2.30;1.33;;;;;;;16.19;93.80;100291.38;5073686;28;20469;-69
2021/08/01 04:21:46;;;;;;;1.17;0.90;;;;;;;16.27;93.46;100295.91;5073323;28;20957;-70
2021/08/01 04:24:12;;;;;;;1.93;1.23;;;;;;;16.32;93.34;100295.69;5073193;28;20947;-69
2021/08/01 04:26:40;;;;;;;1.97;1.23;;;;;;;16.40;93.35;100292.00;5073216;28;20464;-69
2021/08/01 04:29:08;;;;;;;1.30;0.87;;;;;;;16.47;93.31;100293.34;5073509;28;20510;-70
2021/08/01 04:31:34;;;;;;;2.90;1.10;;;;;;;16.51;93.35;100275.91;5073581;28;20448;-69
2021/08/01 04:34:01;;;;;;;2.00;1.80;;;;;;;16.51;93.25;100286.03;5079716;28;20429;-69
2021/08/01 04:36:27;;;;;;;2.37;1.90;;;;;;;16.50;93.08;100285.25;5073180;28;20837;-69
2021/08/01 04:38:53;;;;;;;1.73;1.10;;;;;;;16.63;92.99;100284.03;5072966;28;20520;-71
2021/08/01 04:41:20;;;;;;;1.80;1.00;;;;;;;16.67;92.66;100280.63;5073442;28;20456;-70
2021/08/01 04:43:46;;;;;;;1.50;1.00;;;;;;;16.72;92.02;100274.91;5073049;28;20446;-71
2021/08/01 04:46:14;;;;;;;2.43;1.30;;;;;;;16.77;92.01;100280.94;5073227;28;20488;-69
2021/08/01 04:48:41;;;;;;;4.60;1.10;;;;;;;16.80;91.96;100279.44;5073392;28;20445;-69
2021/08/01 04:51:07;;;;;;;1.60;1.10;;;;;;;16.82;92.19;100283.44;5073025;28;20961;-69
2021/08/01 04:53:34;;;;;;;1.60;1.50;;;;;;;16.83;91.68;100276.81;5073292;28;20448;-69
2021/08/01 04:56:00;;;;;;;2.10;1.43;;;;;;;16.83;91.47;100273.28;5073114;28;20462;-70
2021/08/01 04:58:26;;;;;;;4.23;1.93;;;;;;;16.87;91.56;100274.97;5072871;28;20951;-69
2021/08/01 05:00:53;;;;;;;1.30;1.17;;;;;;;16.95;91.10;100273.19;5072813;28;20453;-70
2021/08/01 05:03:21;;;;;;;1.80;1.60;;;;;;;17.03;91.11;100274.97;5072915;28;20434;-69
2021/08/01 05:05:47;;;;;;;2.30;1.70;;;;;;;17.08;89.83;100282.91;5072987;28;20484;-70
2021/08/01 05:08:13;;;;;;;2.87;1.80;;;;;;;17.17;88.71;100273.72;5072796;28;20446;-69
2021/08/01 05:10:40;;;;;;;1.00;0.80;;;;;;;17.21;89.12;100269.16;5072872;28;20430;-69
2021/08/01 05:13:07;;;;;;;1.93;1.40;;;;;;;17.20;88.90;100283.97;5073048;28;20441;-69
2021/08/01 05:15:34;;;;;;;1.50;1.27;;;;;;;17.27;89.40;100279.50;5072889;28;20469;-70
2021/08/01 05:18:00;;;;;;;1.20;0.93;;;;;;;17.31;90.01;100279.56;5072986;28;20433;-69
2021/08/01 05:20:28;;;;;;;1.20;1.10;;;;;;;17.36;89.85;100288.31;5072970;28;20437;-69
2021/08/01 05:22:54;;;;;;;1.23;1.13;;;;;;;17.39;89.42;100298.53;5072937;28;20441;-70
2021/08/01 05:25:21;;;;;;;2.23;1.30;;;;;;;17.41;89.75;100306.41;5072949;28;20481;-69
2021/08/01 05:27:47;;;;;;;1.60;1.27;;;;;;;17.43;89.50;100306.06;5072724;28;20957;-70
2021/08/01 05:30:14;;;;;;;2.73;1.30;;;;;;;17.42;89.44;100307.22;5072938;28;20445;-69
2021/08/01 05:32:41;;;;;;;1.60;1.43;;;;;;;17.45;89.88;100301.03;5072922;28;20448;-68
2021/08/01 05:35:08;;;;;;;2.83;1.27;;;;;;;17.47;89.51;100315.16;5072832;28;20434;-69
2021/08/01 05:37:36;;;;;;;1.23;1.03;;;;;;;17.48;89.76;100311.25;5072998;28;20465;-69
2021/08/01 05:40:02;;;;;;;1.77;1.40;;;;;;;17.54;89.77;100318.09;5072567;28;20935;-70
2021/08/01 05:42:29;;;;;;;3.77;1.63;;;;;;;17.59;89.54;100306.84;5072919;28;20445;-69
2021/08/01 05:44:55;;;;;;;1.67;1.17;;;;;;;17.65;89.90;100305.41;5072949;28;20481;-74
2021/08/01 05:47:22;;;;;;;2.83;1.87;;;;;;;17.72;90.03;100307.53;5072344;28;20974;-68
2021/08/01 05:49:48;;;;;;;2.20;1.87;;;;;;;17.77;89.01;100310.81;5072813;28;20444;-74
2021/08/01 05:52:16;;;;;;;1.90;1.27;;;;;;;17.75;88.63;100310.41;5075254;28;20440;-72
2021/08/01 05:54:43;;;;;;;2.57;1.97;;;;;;;17.81;88.64;100300.75;5076520;28;20468;-74
2021/08/01 05:57:10;;;;;;;2.00;1.30;;;;;;;17.88;88.81;100298.19;5076387;28;20488;-70
2021/08/01 05:59:36;;;;;;;1.83;1.30;;;;;;;17.89;89.64;100297.03;5076430;28;20494;-70
2021/08/01 06:02:03;;;;;;;1.50;1.40;;;;;;;17.96;88.77;100288.16;5076240;28;20449;-71
2021/08/01 06:04:30;;;;;;;2.10;1.50;;;;;;;18.03;88.87;100284.78;5075864;28;20441;-71
2021/08/01 06:06:56;;;;;;;8.17;1.70;;;;;;;18.11;88.47;100284.59;5076073;28;20464;-71
2021/08/01 06:09:23;;;;;;;1.90;1.70;;;;;;;18.20;89.02;100278.88;5076148;28;20453;-71
2021/08/01 06:11:50;;;;;;;1.93;1.53;;;;;;;18.19;87.67;100274.53;5075873;28;20969;-71
2021/08/01 06:14:17;;;;;;;2.00;1.60;;;;;;;18.24;86.94;100266.06;5076153;28;20453;-71
2021/08/01 06:16:43;;;;;;;3.63;2.00;;;;;;;18.31;87.18;100266.19;5075723;28;20477;-71
2021/08/01 06:19:10;;;;;;;2.30;1.67;;;;;;;18.29;85.55;100273.97;5075908;28;20448;-71
2021/08/01 06:21:36;;;;;;;2.43;1.30;;;;;;;18.27;85.86;100275.50;5075905;28;20870;-70
2021/08/01 06:24:03;;;;;;;2.40;1.30;;;;;;;18.32;85.79;100267.75;5075865;28;20445;-71
2021/08/01 06:26:29;;;;;;;1.53;1.43;;;;;;;18.43;85.82;100273.47;5075713;28;20492;-70
2021/08/01 06:28:57;;;;;;;2.60;1.30;;;;;;;18.45;86.73;100273.88;5075755;28;20441;-71
2021/08/01 06:31:24;;;;;;;1.53;1.00;;;;;;;18.50;85.92;100275.53;5075851;28;20448;-70
2021/08/01 06:33:50;;;;;;;2.10;1.40;;;;;;;18.55;85.66;100278.81;5075546;28;20956;-72
2021/08/01 06:36:18;;;;;;;2.30;1.63;;;;;;;18.57;85.09;100286.66;5075656;28;20472;-71
2021/08/01 06:38:46;;;;;;;2.10;1.63;;;;;;;18.62;85.08;100276.19;5075376;28;20930;-70
2021/08/01 06:41:12;;;;;;;1.37;1.27;;;;;;;18.61;84.50;100282.84;5075617;28;20440;-70
2021/08/01 06:43:39;;;;;;;1.53;1.43;;;;;;;18.61;84.44;100280.09;5075576;28;20444;-71
2021/08/01 06:46:07;;;;;;;2.80;1.10;;;;;;;18.62;85.51;100278.16;5075022;28;20994;-70
2021/08/01 06:48:34;;;;;;;2.63;1.17;;;;;;;18.72;85.86;100274.03;5075463;28;20452;-71
2021/08/01 06:51:01;;;;;;;1.50;1.30;;;;;;;18.77;84.47;100268.25;5075428;28;20437;-71
2021/08/01 06:53:28;;;;;;;2.17;1.53;;;;;;;18.89;84.49;100290.84;5075512;28;20473;-70
2021/08/01 06:55:55;;;;;;;2.13;1.33;;;;;;;18.98;84.10;100292.56;5075309;28;20457;-71
2021/08/01 06:58:22;;;;;;;5.10;1.70;;;;;;;19.08;84.85;100295.50;5075291;28;20441;-70
2021/08/01 07:00:49;;;;;;;2.43;1.27;;;;;;;19.15;83.83;100290.13;5075291;28;20433;-73
2021/08/01 07:03:17;;;;;;;1.47;1.27;;;;;;;19.19;84.01;100298.41;5074706;28;20567;-73
2021/08/01 07:05:43;;;;;;;2.43;1.47;;;;;;;19.21;84.11;100293.34;5074770;28;20485;-75
2021/08/01 07:08:10;;;;;;;1.40;1.23;;;;;;;19.24;82.97;100292.63;5075130;28;20816;-74
2021/08/01 07:10:37;;;;;;;1.70;1.13;;;;;;;19.32;82.57;100301.78;5075067;28;20441;-74
2021/08/01 07:13:04;;;;;;;0.73;0.73;;;;;;;19.28;82.26;100309.94;5075000;28;20464;-75
2021/08/01 07:15:31;;;;;;;1.37;1.27;;;;;;;19.31;82.42;100311.97;5074797;28;20449;-74
2021/08/01 07:17:59;;;;;;;2.60;1.50;;;;;;;19.28;82.99;100309.94;5074766;28;20410;-73
2021/08/01 07:20:27;;;;;;;1.07;0.93;;;;;;;19.30;82.59;100313.13;5074913;28;20854;-74
2021/08/01 07:22:54;;;;;;;2.03;1.53;;;;;;;19.27;82.36;100313.88;5074791;28;20813;-75
2021/08/01 07:25:23;;;;;;;1.50;1.13;;;;;;;19.31;82.04;100303.72;5074818;28;20509;-74
2021/08/01 07:27:49;;;;;;;2.90;1.60;;;;;;;19.30;81.56;100304.91;5074676;28;20445;-75
2021/08/01 07:30:16;;;;;;;2.87;1.20;;;;;;;19.33;81.62;100298.66;5074647;28;20460;-75
2021/08/01 07:32:42;;;;;;;1.87;1.43;;;;;;;19.39;82.44;100299.94;5074483;28;20452;-75
2021/08/01 07:35:09;;;;;;;1.30;1.10;;;;;;;19.38;80.92;100284.59;5074289;28;20939;-75
2021/08/01 07:37:37;;;;;;;1.70;1.23;;;;;;;19.40;80.67;100295.25;5074490;28;20461;-75
2021/08/01 07:40:05;;;;;;;2.50;1.30;;;;;;;19.37;80.51;100302.25;5074475;28;20445;-75
2021/08/01 07:42:31;;;;;;;1.50;1.00;;;;;;;19.35;81.69;100303.81;5074172;28;20954;-75
2021/08/01 07:45:02;;;;;;;2.60;1.00;;;;;;;19.37;81.68;100307.75;5073989;28;20951;-75
2021/08/01 07:47:30;;;;;;;1.37;1.07;;;;;;;19.36;81.17;100313.63;5074457;28;20469;-73
2021/08/01 07:49:57;;;;;;;1.57;1.27;;;;;;;19.35;80.17;100298.31;5074437;28;20445;-73
2021/08/01 07:52:23;;;;;;;3.07;1.50;;;;;;;19.39;80.36;100305.44;5090556;28;20456;-74
2021/08/01 07:54:51;;;;;;;3.00;1.30;;;;;;;19.50;80.11;100308.34;5094704;28;20440;-74
2021/08/01 07:57:25;;;;;;;1.33;1.10;;;;;;;19.54;80.28;100302.91;5094170;28;20996;-73
2021/08/01 07:59:52;;;;;;;3.43;1.30;;;;;;;19.57;81.64;100296.69;5094597;28;20449;-72
2021/08/01 08:02:19;;;;;;;1.90;1.03;;;;;;;19.67;81.37;100307.09;5094297;28;20452;-75
2021/08/01 08:04:45;;;;;;;1.40;1.23;;;;;;;19.76;80.17;100302.13;5094350;28;20855;-74
2021/08/01 08:07:12;;;;;;;3.03;1.60;;;;;;;19.80;79.86;100304.91;5092925;28;20484;-73
2021/08/01 08:09:38;;;;;;;7.00;2.50;;;;;;;19.80;78.61;100300.22;5093784;28;20833;-74
2021/08/01 08:12:07;;;;;;;1.20;1.03;;;;;;;19.61;79.69;100298.38;5081697;28;20445;-73
2021/08/01 08:14:34;;;;;;;1.70;1.37;;;;;;;19.70;80.74;100300.03;5073341;28;20445;-73
2021/08/01 08:17:01;;;;;;;2.90;1.47;;;;;;;19.89;79.74;100288.94;5116784;22;20519;-77
2021/08/01 08:19:28;;;;;;;1.43;1.20;;;;;;;20.08;78.38;100286.06;5094880;28;20451;-78
2021/08/01 08:21:54;;;;;;;1.83;1.30;;;;;;;20.24;77.41;100294.13;5095121;28;20472;-79
2021/08/01 08:24:21;;;;;;;1.57;1.30;;;;;;;20.24;76.45;100296.88;5096310;28;20440;-78
2021/08/01 08:26:47;;;;;;;1.40;1.27;;;;;;;20.24;76.40;100290.59;5096237;28;20484;-77
2021/08/01 08:29:16;;;;;;;6.20;1.20;;;;;;;20.36;76.88;100293.91;5095595;28;20452;-77
2021/08/01 08:31:46;;;;;;;3.23;1.00;;;;;;;20.42;75.97;100288.84;5095017;28;20479;-77
2021/08/01 08:34:13;;;;;;;2.07;1.13;;;;;;;20.50;76.50;100287.00;5095298;28;20425;-77
2021/08/01 08:36:39;;;;;;;1.97;1.20;;;;;;;20.36;76.39;100287.59;5096408;28;20471;-77
2021/08/01 08:39:06;;;;;;;1.33;1.00;;;;;;;20.36;76.53;100295.84;5096292;28;20505;-78
2021/08/01 08:41:33;;;;;;;2.13;1.03;;;;;;;20.39;76.67;100286.84;5095932;28;20810;-77
2021/08/01 08:44:00;;;;;;;1.50;0.77;;;;;;;20.55;76.90;100294.94;5095393;28;20444;-77
2021/08/01 08:46:28;;;;;;;5.83;1.40;;;;;;;20.59;76.47;100295.75;5094870;28;20484;-77
2021/08/01 08:48:56;;;;;;;2.63;1.53;;;;;;;20.64;75.47;100293.47;5095738;28;20444;-77
2021/08/01 08:51:26;;;;;;;2.10;1.30;;;;;;;20.81;74.38;100291.28;5095753;28;20440;-78
2021/08/01 08:53:54;;;;;;;2.20;1.50;;;;;;;20.91;74.40;100291.38;5095762;28;20474;-77
2021/08/01 08:56:22;;;;;;;2.20;1.77;;;;;;;20.88;73.38;100288.59;5095522;28;20460;-77
2021/08/01 08:58:53;;;;;;;2.30;1.30;;;;;;;20.79;74.32;100285.34;5096824;28;20782;-77
2021/08/01 09:01:19;;;;;;;1.90;1.07;;;;;;;21.03;74.41;100293.09;5096419;28;20437;-78
2021/08/01 09:03:49;;;;;;;1.30;1.10;;;;;;;21.21;73.33;100301.50;5101200;28;20496;-77
2021/08/01 09:06:15;;;;;;;4.03;1.17;;;;;;;21.23;72.75;100301.13;5093410;28;20576;-78
2021/08/01 09:08:42;;;;;;;2.73;1.20;;;;;;;21.11;73.38;100299.44;5093685;28;20456;-77
2021/08/01 09:11:09;;;;;;;1.47;1.37;;;;;;;21.09;73.22;100301.78;5093988;28;20448;-77
2021/08/01 09:13:43;;;;;;;1.03;0.93;;;;;;;21.09;72.65;100307.28;5094287;28;20448;-77
2021/08/01 09:16:09;;;;;;;1.70;1.30;;;;;;;21.00;74.44;100304.06;5093809;28;20440;-77
2021/08/01 09:18:36;;;;;;;1.50;1.17;;;;;;;21.02;74.36;100307.22;5094426;28;20425;-77
2021/08/01 09:21:04;;;;;;;1.50;1.10;;;;;;;21.14;73.84;100304.19;5094875;28;20843;-78
2021/08/01 09:23:30;;;;;;;0.80;0.80;;;;;;;21.26;72.83;100297.59;5095286;28;20448;-78
2021/08/01 09:25:59;;;;;;;2.00;1.10;;;;;;;21.31;73.63;100303.59;5096443;28;21019;-77
2021/08/01 09:28:28;;;;;;;1.37;1.13;;;;;;;21.38;72.20;100302.84;5098887;28;20436;-77
2021/08/01 09:30:56;;;;;;;1.43;1.20;;;;;;;21.26;72.69;100303.13;5099537;28;20441;-78
2021/08/01 09:33:33;;;;;;;2.00;1.67;;;;;;;21.37;71.74;100291.03;5099980;28;20933;-78
2021/08/01 09:36:11;;;;;;;1.60;1.17;;;;;;;21.60;72.21;100298.28;5100200;28;20420;-77
2021/08/01 09:38:46;;;;;;;1.70;1.30;;;;;;;21.86;70.46;100297.28;5100993;28;20421;-78
2021/08/01 09:41:12;;;;;;;1.53;1.00;;;;;;;21.95;71.01;100294.19;5100898;28;20443;-77
2021/08/01 09:43:45;;;;;;;2.20;1.67;;;;;;;21.99;69.37;100297.75;5100092;28;20441;-78
2021/08/01 09:46:11;;;;;;;1.97;1.67;;;;;;;21.90;69.66;100290.59;5100895;28;20464;-78
2021/08/01 09:48:38;;;;;;;2.17;1.53;;;;;;;21.82;69.59;100293.72;5100755;28;20455;-77
2021/08/01 09:51:06;;;;;;;1.60;1.30;;;;;;;21.96;69.78;100293.81;5100882;28;20522;-78
2021/08/01 09:53:35;;;;;;;2.30;1.70;;;;;;;22.12;69.75;100293.50;5100805;28;20432;-78
2021/08/01 09:56:17;;;;;;;1.90;1.20;;;;;;;22.14;67.71;100297.47;5099735;28;20451;-78
2021/08/01 09:58:44;;;;;;;1.70;1.30;;;;;;;22.17;67.09;100295.91;5100635;28;20444;-78
2021/08/01 10:01:11;;;;;;;1.70;1.10;;;;;;;22.13;68.02;100292.34;5100427;28;20865;-77
2021/08/01 10:03:38;;;;;;;3.20;1.37;;;;;;;22.12;68.17;100296.28;5101087;28;20522;-78
2021/08/01 10:06:09;;;;;;;1.00;0.80;;;;;;;21.87;68.19;100296.91;5100022;28;20495;-78
2021/08/01 10:08:38;;;;;;;1.10;0.90;;;;;;;21.76;68.79;100284.22;5100985;28;20493;-78
2021/08/01 10:11:13;;;;;;;1.60;1.13;;;;;;;21.72;68.99;100297.19;5100119;28;20860;-77
2021/08/01 10:13:40;;;;;;;0.90;0.90;;;;;;;21.95;69.03;100289.44;5099965;28;20424;-78
2021/08/01 10:16:09;;;;;;;0.90;0.80;;;;;;;22.08;67.71;100295.44;5099600;28;20443;-78
2021/08/01 10:18:35;;;;;;;1.30;0.90;;;;;;;22.21;64.96;100288.44;5099847;28;20448;-77
2021/08/01 10:21:02;;;;;;;0.93;0.83;;;;;;;22.39;66.28;100294.81;5100350;28;20442;-78
2021/08/01 10:23:32;;;;;;;1.57;0.83;;;;;;;22.37;65.06;100288.91;5099267;28;20436;-78
2021/08/01 10:26:01;;;;;;;1.20;1.00;;;;;;;22.40;65.74;100292.84;5099587;28;20440;-78
2021/08/01 10:28:30;;;;;;;0.80;0.73;;;;;;;22.31;66.27;100297.94;5100381;28;20460;-78
2021/08/01 10:31:01;;;;;;;0.87;0.73;;;;;;;22.27;66.55;100289.66;5100738;28;20444;-78
2021/08/01 10:33:35;;;;;;;1.97;1.20;;;;;;;22.15;64.89;100288.03;5099904;28;20425;-77
2021/08/01 10:36:06;;;;;;;1.57;1.03;;;;;;;22.04;66.96;100289.88;5099102;28;20483;-77
2021/08/01 10:38:36;;;;;;;1.40;1.23;;;;;;;21.79;66.79;100289.75;5097742;28;20428;-79
2021/08/01 10:41:07;;;;;;;1.87;1.00;;;;;;;21.74;66.12;100287.38;5097975;28;20431;-77
2021/08/01 10:43:36;;;;;;;1.57;1.27;;;;;;;21.85;67.14;100287.44;5097890;28;20436;-77
2021/08/01 10:46:04;;;;;;;1.17;1.00;;;;;;;21.89;65.02;100291.78;5096470;28;20447;-75
2021/08/01 10:48:32;;;;;;;1.97;0.87;;;;;;;22.06;65.17;100286.75;5095660;28;20432;-74
2021/08/01 10:50:59;;;;;;;1.37;0.80;;;;;;;22.09;64.61;100284.03;5096353;28;20448;-76
2021/08/01 10:53:27;;;;;;;2.53;1.17;;;;;;;22.06;64.03;100281.25;5096180;28;20515;-77
2021/08/01 10:56:14;;;;;;;1.13;0.90;;;;;;;22.14;64.19;100283.69;5095799;28;20956;-77
2021/08/01 10:58:41;;;;;;;1.53;1.40;;;;;;;22.17;64.70;100282.09;5095689;28;20440;-77
2021/08/01 11:01:09;;;;;;;1.97;0.90;;;;;;;22.20;65.27;100286.84;5096860;28;20856;-77
2021/08/01 11:03:37;;;;;;;0.80;0.80;;;;;;;22.26;64.21;100273.47;5103186;28;20446;-76
2021/08/01 11:06:04;;;;;;;1.43;1.20;;;;;;;22.28;64.94;100274.69;5095395;28;20444;-77
2021/08/01 11:08:32;;;;;;;1.13;0.97;;;;;;;22.27;64.76;100275.88;5095707;28;20489;-77
2021/08/01 11:11:16;;;;;;;1.70;1.20;;;;;;;22.42;63.36;100271.19;5095472;28;20472;-77
2021/08/01 11:13:45;;;;;;;0.80;0.80;;;;;;;22.61;63.77;100268.06;5095811;28;20443;-76
2021/08/01 11:16:14;;;;;;;1.07;0.80;;;;;;;22.65;61.39;100268.09;5095449;28;20432;-77
2021/08/01 11:18:43;;;;;;;2.50;0.90;;;;;;;22.83;63.93;100263.38;5096699;28;20440;-77
2021/08/01 11:21:10;;;;;;;1.50;0.93;;;;;;;22.99;62.92;100256.75;5095873;28;20933;-77
2021/08/01 11:24:09;;;;;;;4.60;1.27;;;;;;;22.92;61.62;100255.53;5095942;28;20964;-77
2021/08/01 11:26:37;;;;;;;1.70;1.00;;;;;;;22.67;61.68;100255.47;5095938;28;20484;-77
2021/08/01 11:29:08;;;;;;;1.57;0.93;;;;;;;22.56;63.28;100254.66;5095827;28;20440;-77